Time;durP1;ratioP1;P1;durP2;ratioP2;P2;SDS_P1;SDS_P2;PMS_P1;PMS_P2;Temp;Humidity;BMP_temperature;BMP_pressure;BME280_temperature;BME280_humidity;BME280_pressure;Samples;Min_cycle;Max_cycle;Signal;HPM_P1;HPM_P2
2021/07/01 00:00:13;;;;;;;2.03;0.40;;;18.20;67.50;;;;;;5117224;28;20019;-70
2021/07/01 00:02:39;;;;;;;0.70;0.30;;;18.30;67.20;;;;;;5117460;28;20028;-70
2021/07/01 00:05:10;;;;;;;1.48;0.47;;;18.30;68.70;;;;;;5117447;28;20019;-70
2021/07/01 00:07:36;;;;;;;1.08;0.40;;;18.20;67.80;;;;;;5117443;28;20035;-70
2021/07/01 00:10:08;;;;;;;0.50;0.30;;;18.30;65.80;;;;;;5117422;28;20072;-70
2021/07/01 00:12:34;;;;;;;4.55;0.35;;;18.50;65.70;;;;;;5117378;28;20374;-70
2021/07/01 00:14:59;;;;;;;1.23;0.32;;;18.60;64.90;;;;;;5117360;28;20073;-70
2021/07/01 00:17:25;;;;;;;2.90;0.32;;;18.70;64.50;;;;;;5117075;28;20023;-70
2021/07/01 00:19:51;;;;;;;1.40;0.30;;;18.70;64.20;;;;;;5117320;28;20023;-70
2021/07/01 00:22:16;;;;;;;0.30;0.25;;;18.60;65.50;;;;;;5117017;28;20027;-70
2021/07/01 00:24:42;;;;;;;0.38;0.30;;;18.60;64.20;;;;;;5116998;28;20030;-70
2021/07/01 00:27:08;;;;;;;1.50;0.30;;;18.60;65.40;;;;;;5116848;28;20060;-71
2021/07/01 00:29:34;;;;;;;1.17;0.35;;;18.60;64.50;;;;;;5116952;28;20069;-70
2021/07/01 00:31:59;;;;;;;4.35;0.38;;;18.60;64.20;;;;;;5117259;28;20037;-70
2021/07/01 00:34:25;;;;;;;2.08;0.35;;;18.60;65.20;;;;;;5117236;28;20015;-70
2021/07/01 00:36:51;;;;;;;0.88;0.30;;;18.60;64.50;;;;;;5117078;28;20032;-71
2021/07/01 00:39:17;;;;;;;2.17;0.30;;;18.60;63.70;;;;;;5117156;28;20028;-70
2021/07/01 00:41:42;;;;;;;0.20;0.20;;;18.60;64.70;;;;;;5120846;28;20105;-70
2021/07/01 00:44:08;;;;;;;2.03;0.40;;;18.60;64.80;;;;;;5121375;28;20036;-70
2021/07/01 00:46:34;;;;;;;1.70;0.40;;;18.60;64.20;;;;;;5120742;28;20030;-70
2021/07/01 00:49:00;;;;;;;0.35;0.30;;;18.60;64.60;;;;;;5102771;28;20024;-70
2021/07/01 00:51:25;;;;;;;2.47;0.30;;;18.50;64.80;;;;;;5121051;28;20098;-70
2021/07/01 00:53:51;;;;;;;1.85;0.30;;;18.40;65.60;;;;;;5120967;28;20024;-71
2021/07/01 00:56:19;;;;;;;0.43;0.20;;;18.40;66.00;;;;;;5120483;28;20047;-70
2021/07/01 00:58:45;;;;;;;0.43;0.30;;;18.50;64.40;;;;;;5120603;28;20065;-70
2021/07/01 01:01:11;;;;;;;0.20;0.20;;;18.50;66.90;;;;;;5120602;28;20024;-70
2021/07/01 01:03:38;;;;;;;0.40;0.20;;;18.50;65.10;;;;;;5120795;28;20020;-70
2021/07/01 01:06:09;;;;;;;1.63;0.50;;;18.40;67.30;;;;;;5120654;28;20034;-70
2021/07/01 01:08:34;;;;;;;0.75;0.30;;;18.30;66.50;;;;;;5120716;28;20471;-70
2021/07/01 01:11:00;;;;;;;4.03;0.47;;;18.30;66.50;;;;;;5120640;28;20103;-70
2021/07/01 01:13:26;;;;;;;1.65;0.82;;;18.30;67.80;;;;;;5120501;28;20461;-70
2021/07/01 01:15:57;;;;;;;1.33;0.40;;;18.10;68.10;;;;;;5120564;28;20031;-70
2021/07/01 01:18:23;;;;;;;0.93;0.40;;;18.00;67.70;;;;;;5120559;28;20292;-70
2021/07/01 01:20:50;;;;;;;5.40;0.40;;;18.00;68.10;;;;;;5120489;28;20026;-71
2021/07/01 01:23:17;;;;;;;9.07;0.40;;;17.80;68.80;;;;;;5120426;28;20020;-70
2021/07/01 01:25:46;;;;;;;2.50;0.45;;;17.80;68.20;;;;;;5119981;28;20024;-70
2021/07/01 01:28:12;;;;;;;1.05;0.30;;;17.80;66.00;;;;;;5120038;28;20031;-70
2021/07/01 01:30:39;;;;;;;0.60;0.30;;;18.00;66.40;;;;;;5120311;28;20015;-71
2021/07/01 01:33:08;;;;;;;3.30;0.40;;;18.10;66.70;;;;;;5120234;28;20297;-70
2021/07/01 01:35:35;;;;;;;4.10;0.47;;;18.20;66.40;;;;;;5119866;28;20411;-71
2021/07/01 01:38:02;;;;;;;2.78;0.40;;;18.20;66.40;;;;;;5119859;28;20019;-70
2021/07/01 01:40:28;;;;;;;1.63;0.40;;;18.20;66.00;;;;;;5119804;28;20016;-70
2021/07/01 01:42:54;;;;;;;1.48;0.30;;;18.30;65.50;;;;;;5119870;28;20028;-70
2021/07/01 01:45:20;;;;;;;0.73;0.40;;;18.40;64.40;;;;;;5119985;28;20453;-69
2021/07/01 01:47:47;;;;;;;0.80;0.30;;;18.50;63.90;;;;;;5119564;28;20289;-70
2021/07/01 01:50:19;;;;;;;1.70;0.47;;;18.60;63.40;;;;;;5119924;28;20085;-70
2021/07/01 01:52:46;;;;;;;0.82;0.40;;;18.70;63.00;;;;;;5118535;28;20107;-71
2021/07/01 01:55:13;;;;;;;0.80;0.35;;;18.70;63.80;;;;;;5119324;28;20051;-70
2021/07/01 01:57:47;;;;;;;0.40;0.20;;;18.70;63.10;;;;;;5119471;28;20032;-70
2021/07/01 02:00:15;;;;;;;0.98;0.30;;;18.80;62.20;;;;;;5119713;28;20032;-70
2021/07/01 02:02:41;;;;;;;0.82;0.30;;;18.80;64.50;;;;;;5119629;28;20056;-70
2021/07/01 02:05:09;;;;;;;0.80;0.30;;;18.60;63.70;;;;;;5119316;28;20036;-70
2021/07/01 02:07:36;;;;;;;0.82;0.45;;;18.60;64.10;;;;;;5101200;28;20072;-70
2021/07/01 02:10:07;;;;;;;1.88;0.40;;;18.50;65.90;;;;;;5119243;28;20024;-70
2021/07/01 02:12:33;;;;;;;4.32;0.45;;;18.30;65.90;;;;;;5119143;28;20041;-70
2021/07/01 02:14:59;;;;;;;2.85;0.38;;;18.30;65.80;;;;;;5119119;28;20080;-70
2021/07/01 02:17:25;;;;;;;0.85;0.30;;;18.30;66.20;;;;;;5119082;28;20027;-70
2021/07/01 02:19:51;;;;;;;2.55;0.50;;;18.20;67.60;;;;;;5119310;28;20036;-70
2021/07/01 02:22:18;;;;;;;3.25;0.40;;;18.10;67.40;;;;;;5119061;28;20076;-70
2021/07/01 02:24:44;;;;;;;2.33;0.50;;;18.10;66.90;;;;;;5119270;28;20068;-70
2021/07/01 02:27:10;;;;;;;2.03;0.50;;;18.10;66.90;;;;;;5119088;28;20031;-70
2021/07/01 02:29:37;;;;;;;2.80;0.55;;;18.10;67.20;;;;;;5119144;28;20043;-70
2021/07/01 02:32:03;;;;;;;1.38;0.30;;;18.10;66.60;;;;;;5118740;28;20434;-70
2021/07/01 02:34:30;;;;;;;0.60;0.38;;;18.00;67.30;;;;;;5119065;28;20049;-70
2021/07/01 02:36:56;;;;;;;1.75;0.30;;;18.00;66.60;;;;;;5118657;28;20023;-70
2021/07/01 02:39:22;;;;;;;0.88;0.40;;;18.00;66.90;;;;;;5118628;28;20034;-70
2021/07/01 02:41:48;;;;;;;3.13;0.40;;;18.00;66.60;;;;;;5118971;28;20031;-70
2021/07/01 02:44:14;;;;;;;0.95;0.40;;;18.00;67.30;;;;;;5119038;28;20031;-71
2021/07/01 02:46:40;;;;;;;3.17;0.45;;;18.00;67.10;;;;;;5118692;28;20346;-71
2021/07/01 02:49:05;;;;;;;0.50;0.30;;;18.00;66.10;;;;;;5118464;28;20324;-70
2021/07/01 02:51:31;;;;;;;4.18;0.50;;;18.10;66.20;;;;;;5118404;28;20023;-70
2021/07/01 02:53:57;;;;;;;1.27;0.55;;;18.10;66.40;;;;;;5118602;28;20028;-70
2021/07/01 02:56:22;;;;;;;1.15;0.50;;;18.10;66.80;;;;;;5118130;28;20048;-70
2021/07/01 02:58:49;;;;;;;3.28;0.45;;;18.10;66.90;;;;;;5118585;28;20030;-70
2021/07/01 03:01:15;;;;;;;0.98;0.52;;;18.00;68.00;;;;;;5118223;28;20062;-72
2021/07/01 03:03:41;;;;;;;1.85;0.30;;;17.80;68.10;;;;;;5118242;28;20034;-72
2021/07/01 03:06:06;;;;;;;1.83;0.40;;;17.70;68.60;;;;;;5118374;28;20311;-72
2021/07/01 03:08:32;;;;;;;1.13;0.30;;;17.80;67.90;;;;;;5118408;28;20407;-72
2021/07/01 03:10:58;;;;;;;0.77;0.32;;;17.90;66.90;;;;;;5118324;28;20092;-72
2021/07/01 03:13:24;;;;;;;0.57;0.30;;;18.00;66.50;;;;;;5118335;28;20035;-72
2021/07/01 03:15:49;;;;;;;1.55;0.43;;;18.10;66.20;;;;;;5117937;28;20023;-72
2021/07/01 03:18:15;;;;;;;0.43;0.30;;;18.20;65.30;;;;;;5118215;28;20023;-71
2021/07/01 03:20:41;;;;;;;0.57;0.40;;;18.30;65.60;;;;;;5118171;28;20338;-72
2021/07/01 03:23:07;;;;;;;1.92;0.50;;;18.20;65.10;;;;;;5117767;28;20296;-71
2021/07/01 03:25:32;;;;;;;2.63;0.52;;;18.20;65.60;;;;;;5118056;28;20027;-72
2021/07/01 03:27:58;;;;;;;2.25;0.40;;;18.20;65.50;;;;;;5117658;28;20027;-72
2021/07/01 03:30:24;;;;;;;1.02;0.30;;;18.20;65.40;;;;;;5117993;28;20020;-72
2021/07/01 03:32:50;;;;;;;1.85;0.52;;;18.20;65.00;;;;;;5117936;28;20316;-71
2021/07/01 03:35:16;;;;;;;0.30;0.20;;;18.30;65.30;;;;;;5117919;28;20015;-72
2021/07/01 03:37:41;;;;;;;1.55;0.30;;;18.30;65.00;;;;;;5117878;28;20088;-72
2021/07/01 03:40:09;;;;;;;1.10;0.40;;;18.40;64.40;;;;;;5117505;28;20324;-72
2021/07/01 03:42:35;;;;;;;1.23;0.40;;;18.40;65.20;;;;;;5117445;28;20028;-72
2021/07/01 03:45:02;;;;;;;0.80;0.40;;;18.40;64.70;;;;;;5117746;28;20058;-72
2021/07/01 03:47:28;;;;;;;1.00;0.40;;;18.50;65.70;;;;;;5117654;28;20080;-72
2021/07/01 03:49:53;;;;;;;1.33;0.50;;;18.50;64.80;;;;;;5117359;28;20024;-71
2021/07/01 03:52:19;;;;;;;1.23;0.57;;;18.60;64.20;;;;;;5117382;28;20031;-72
2021/07/01 03:54:45;;;;;;;0.70;0.30;;;18.70;64.00;;;;;;5117163;28;20077;-72
2021/07/01 03:57:11;;;;;;;2.25;0.43;;;18.90;63.40;;;;;;5117537;28;20027;-72
2021/07/01 03:59:37;;;;;;;0.90;0.35;;;18.90;65.10;;;;;;5117522;28;20028;-72
2021/07/01 04:02:03;;;;;;;1.23;0.43;;;18.80;65.20;;;;;;5117533;28;20365;-72
2021/07/01 04:04:29;;;;;;;2.22;0.43;;;18.70;65.00;;;;;;5117254;28;20080;-71
2021/07/01 04:06:55;;;;;;;4.82;0.50;;;18.60;65.40;;;;;;5117028;28;20031;-71
2021/07/01 04:09:21;;;;;;;0.98;0.50;;;18.50;66.10;;;;;;5117425;28;20024;-72
2021/07/01 04:11:47;;;;;;;2.78;0.60;;;18.50;66.50;;;;;;5117130;28;20130;-72
2021/07/01 04:14:16;;;;;;;1.48;0.55;;;18.50;66.30;;;;;;5117900;28;20107;-72
2021/07/01 04:16:42;;;;;;;0.45;0.38;;;18.50;66.60;;;;;;5124139;28;20038;-72
2021/07/01 04:19:07;;;;;;;1.10;0.40;;;18.60;66.40;;;;;;5123887;28;20090;-72
2021/07/01 04:21:33;;;;;;;0.68;0.35;;;18.60;66.60;;;;;;5124227;28;20031;-72
2021/07/01 04:23:59;;;;;;;1.40;0.70;;;18.50;66.90;;;;;;5124203;28;20496;-72
2021/07/01 04:26:25;;;;;;;1.10;0.30;;;18.50;67.20;;;;;;5124037;28;20141;-72
2021/07/01 04:28:52;;;;;;;3.35;0.57;;;18.50;67.90;;;;;;5124128;28;20366;-72
2021/07/01 04:31:18;;;;;;;3.80;0.40;;;18.40;67.80;;;;;;5124101;28;20020;-72
2021/07/01 04:33:44;;;;;;;2.65;0.50;;;18.40;68.00;;;;;;5124023;28;20047;-72
2021/07/01 04:36:10;;;;;;;2.90;0.40;;;18.40;68.20;;;;;;5123722;28;20051;-72
2021/07/01 04:38:36;;;;;;;1.10;0.30;;;18.30;67.40;;;;;;5123699;28;20023;-72
2021/07/01 04:41:01;;;;;;;0.65;0.40;;;18.30;67.50;;;;;;5123719;28;20034;-72
2021/07/01 04:43:27;;;;;;;0.93;0.40;;;18.30;68.70;;;;;;5124053;28;20106;-72
2021/07/01 04:45:53;;;;;;;2.15;0.38;;;18.20;68.30;;;;;;5123872;28;20411;-71
2021/07/01 04:48:18;;;;;;;3.47;0.40;;;18.20;68.40;;;;;;5123965;28;20308;-72
2021/07/01 04:50:44;;;;;;;3.15;0.60;;;18.30;69.00;;;;;;5123604;28;20339;-72
2021/07/01 04:53:10;;;;;;;0.50;0.30;;;18.30;68.70;;;;;;5123574;28;20106;-71
2021/07/01 04:55:36;;;;;;;1.75;0.40;;;18.30;68.00;;;;;;5123338;28;20048;-72
2021/07/01 04:58:02;;;;;;;4.93;0.50;;;18.40;68.20;;;;;;5123518;28;20030;-72
2021/07/01 05:00:27;;;;;;;2.33;0.40;;;18.40;67.60;;;;;;5123791;28;20019;-72
2021/07/01 05:02:53;;;;;;;0.85;0.50;;;18.40;68.00;;;;;;5123796;28;20028;-72
2021/07/01 05:05:19;;;;;;;2.65;0.60;;;18.30;68.40;;;;;;5123448;28;20076;-72
2021/07/01 05:07:46;;;;;;;1.38;0.40;;;18.30;68.60;;;;;;5123395;28;20039;-72
2021/07/01 05:10:14;;;;;;;1.20;0.50;;;18.40;68.50;;;;;;5123714;28;20027;-72
2021/07/01 05:12:40;;;;;;;2.05;0.40;;;18.60;67.90;;;;;;5123627;28;20126;-72
2021/07/01 05:15:06;;;;;;;0.80;0.50;;;18.70;67.30;;;;;;5123359;28;20382;-72
2021/07/01 05:17:34;;;;;;;0.80;0.40;;;18.80;66.80;;;;;;5123682;28;20080;-72
2021/07/01 05:20:00;;;;;;;4.95;0.57;;;18.90;66.40;;;;;;5123334;28;20079;-72
2021/07/01 05:22:26;;;;;;;0.93;0.38;;;18.90;66.70;;;;;;5123616;28;20027;-72
2021/07/01 05:24:51;;;;;;;1.73;0.20;;;18.90;67.40;;;;;;5123638;28;20357;-72
2021/07/01 05:27:17;;;;;;;1.45;0.38;;;18.90;67.10;;;;;;5120816;28;20031;-72
2021/07/01 05:29:43;;;;;;;3.33;0.65;;;19.00;66.30;;;;;;5119961;28;20499;-69
2021/07/01 05:32:08;;;;;;;2.38;0.40;;;19.10;67.10;;;;;;5119983;28;20028;-70
2021/07/01 05:34:35;;;;;;;0.40;0.20;;;19.30;65.90;;;;;;5120302;28;20078;-70
2021/07/01 05:37:00;;;;;;;2.53;0.47;;;19.50;66.10;;;;;;5119828;28;20035;-70
2021/07/01 05:39:26;;;;;;;1.35;0.40;;;19.40;65.50;;;;;;5120146;28;20028;-70
2021/07/01 05:41:52;;;;;;;1.65;0.60;;;19.40;64.80;;;;;;5120092;28;20024;-70
2021/07/01 05:44:17;;;;;;;1.00;0.30;;;19.40;65.70;;;;;;5120194;28;20031;-70
2021/07/01 05:46:43;;;;;;;1.23;0.40;;;19.50;64.80;;;;;;5119873;28;20031;-70
2021/07/01 05:49:09;;;;;;;0.98;0.30;;;19.50;64.50;;;;;;5119658;28;20031;-70
2021/07/01 05:51:36;;;;;;;0.40;0.30;;;19.50;64.90;;;;;;5119916;28;20043;-70
2021/07/01 05:56:42;;;;;;;5.00;0.50;;;19.30;64.50;;;;;;5079251;28;20139;-70
2021/07/01 05:59:09;;;;;;;1.65;0.35;;;19.40;64.90;;;;;;5078705;28;20116;-70
2021/07/01 06:01:36;;;;;;;0.77;0.43;;;19.50;65.30;;;;;;5079592;28;20032;-70
2021/07/01 06:04:06;;;;;;;0.82;0.30;;;19.70;64.90;;;;;;5078656;28;20035;-70
2021/07/01 06:06:35;;;;;;;1.67;0.40;;;20.10;64.50;;;;;;5078812;28;20027;-70
2021/07/01 06:09:04;;;;;;;4.28;1.33;;;20.70;64.40;;;;;;5078886;28;20028;-70
2021/07/01 06:11:32;;;;;;;0.60;0.30;;;21.30;63.60;;;;;;5078553;28;20025;-70
2021/07/01 06:13:59;;;;;;;0.60;0.30;;;21.80;62.00;;;;;;5078834;28;20040;-70
2021/07/01 06:16:26;;;;;;;10.95;1.73;;;22.30;61.10;;;;;;5078427;28;20032;-70
2021/07/01 06:18:53;;;;;;;1.48;0.38;;;22.60;60.40;;;;;;5078435;28;20082;-70
2021/07/01 06:21:18;;;;;;;2.13;0.47;;;22.70;60.60;;;;;;5078724;28;20024;-70
2021/07/01 06:23:46;;;;;;;0.57;0.32;;;23.20;58.00;;;;;;5078594;28;20428;-70
2021/07/01 06:26:14;;;;;;;0.63;0.30;;;24.10;58.60;;;;;;5078466;28;20320;-70
2021/07/01 06:28:43;;;;;;;1.08;0.40;;;24.90;55.90;;;;;;5078213;28;20090;-70
2021/07/01 06:31:10;;;;;;;4.75;0.45;;;24.80;54.30;;;;;;5078167;28;20017;-70
2021/07/01 06:33:40;;;;;;;1.00;0.38;;;24.80;55.00;;;;;;5078399;28;20029;-70
2021/07/01 06:36:07;;;;;;;0.93;0.30;;;24.70;56.20;;;;;;5078415;28;20021;-70
2021/07/01 06:38:35;;;;;;;2.03;0.52;;;24.50;56.20;;;;;;5077755;28;20036;-70
2021/07/01 06:41:06;;;;;;;0.95;0.30;;;24.30;57.30;;;;;;5078276;28;20017;-70
2021/07/01 06:43:32;;;;;;;0.95;0.28;;;25.10;53.90;;;;;;5078319;28;20032;-70
2021/07/01 06:46:00;;;;;;;1.63;0.30;;;25.80;53.40;;;;;;5077803;28;20025;-70
2021/07/01 06:48:27;;;;;;;1.73;0.30;;;26.70;50.90;;;;;;5077792;28;20025;-70
2021/07/01 06:50:56;;;;;;;1.92;0.20;;;27.20;50.80;;;;;;5078038;28;20027;-70
2021/07/01 06:53:22;;;;;;;0.75;0.30;;;27.10;50.30;;;;;;5077967;28;20025;-70
2021/07/01 06:55:51;;;;;;;2.25;0.50;;;26.20;51.30;;;;;;5077548;28;20071;-70
2021/07/01 06:58:17;;;;;;;0.47;0.20;;;26.10;53.10;;;;;;5077918;28;20024;-70
2021/07/01 07:00:43;;;;;;;2.40;0.30;;;26.10;52.40;;;;;;5077841;28;20316;-70
2021/07/01 07:03:17;;;;;;;0.63;0.30;;;26.30;51.30;;;;;;5077789;28;20024;-71
2021/07/01 07:05:45;;;;;;;1.08;0.80;;;26.40;51.30;;;;;;5077693;28;20359;-70
2021/07/01 07:08:13;;;;;;;0.50;0.28;;;25.80;52.10;;;;;;5077668;28;20086;-70
2021/07/01 07:10:41;;;;;;;1.27;0.30;;;25.30;53.20;;;;;;5077671;28;20051;-71
2021/07/01 07:13:07;;;;;;;0.77;0.30;;;25.00;54.30;;;;;;5077424;28;20511;-70
2021/07/01 07:15:33;;;;;;;0.75;0.30;;;25.00;54.20;;;;;;5077566;28;20044;-70
2021/07/01 07:18:18;;;;;;;1.63;0.30;;;24.90;55.20;;;;;;5077262;28;20151;-70
2021/07/01 07:20:51;;;;;;;0.63;0.30;;;25.50;54.70;;;;;;5077218;28;20024;-70
2021/07/01 07:23:19;;;;;;;0.38;0.30;;;25.80;54.30;;;;;;5077137;28;20028;-70
2021/07/01 07:25:46;;;;;;;3.40;0.32;;;25.80;54.20;;;;;;5077192;28;20016;-70
2021/07/01 07:28:12;;;;;;;0.40;0.20;;;25.90;54.80;;;;;;5077064;28;20052;-70
2021/07/01 07:30:38;;;;;;;3.17;0.75;;;26.00;54.70;;;;;;5077327;28;20092;-70
2021/07/01 07:33:09;;;;;;;3.40;0.43;;;26.30;54.50;;;;;;5077299;28;20029;-70
2021/07/01 07:35:35;;;;;;;2.00;0.38;;;26.60;54.60;;;;;;5077260;28;20016;-70
2021/07/01 07:38:04;;;;;;;2.60;0.40;;;26.60;52.70;;;;;;5077225;28;20017;-70
2021/07/01 07:40:30;;;;;;;0.70;0.30;;;26.10;53.70;;;;;;5077187;28;20031;-70
2021/07/01 07:42:56;;;;;;;0.43;0.30;;;25.70;55.70;;;;;;5077181;28;20452;-69
2021/07/01 07:45:22;;;;;;;1.00;0.32;;;25.30;57.00;;;;;;5076744;28;20440;-70
2021/07/01 07:47:47;;;;;;;1.42;0.35;;;25.10;56.00;;;;;;5076719;28;20064;-70
2021/07/01 07:50:14;;;;;;;0.70;0.30;;;24.80;57.00;;;;;;5076244;28;20028;-70
2021/07/01 07:52:50;;;;;;;2.33;0.30;;;24.50;59.00;;;;;;5076724;28;20111;-70
2021/07/01 07:55:19;;;;;;;1.10;0.30;;;24.50;59.40;;;;;;5086397;28;20051;-70
2021/07/01 07:57:50;;;;;;;1.70;0.50;;;24.70;60.80;;;;;;5097281;28;20085;-70
2021/07/01 08:00:19;;;;;;;2.25;0.45;;;25.00;59.90;;;;;;5097269;28;20024;-70
2021/07/01 08:02:53;;;;;;;2.08;0.50;;;25.20;58.90;;;;;;5096857;28;20028;-70
2021/07/01 08:05:23;;;;;;;0.73;0.25;;;25.10;57.90;;;;;;5097188;28;20039;-70
2021/07/01 08:07:50;;;;;;;3.35;0.60;;;24.80;59.50;;;;;;5096731;28;20073;-70
2021/07/01 08:10:20;;;;;;;3.55;0.50;;;24.70;60.60;;;;;;5096816;28;20023;-70
2021/07/01 08:12:50;;;;;;;3.33;0.60;;;24.70;63.90;;;;;;5097035;28;20036;-70
2021/07/01 08:15:19;;;;;;;2.35;0.40;;;24.70;64.30;;;;;;5097058;28;20020;-70
2021/07/01 08:17:46;;;;;;;2.25;0.68;;;24.90;64.50;;;;;;5096719;28;20470;-70
2021/07/01 08:20:14;;;;;;;3.58;0.50;;;25.10;62.80;;;;;;5097020;28;20024;-70
2021/07/01 08:22:43;;;;;;;1.15;0.43;;;25.70;59.40;;;;;;5096645;28;20085;-69
2021/07/01 08:25:09;;;;;;;2.85;0.70;;;26.70;59.30;;;;;;5096605;28;20028;-70
2021/07/01 08:27:36;;;;;;;2.85;0.50;;;27.80;53.70;;;;;;5096850;28;20313;-70
2021/07/01 08:30:05;;;;;;;1.70;0.30;;;28.30;52.30;;;;;;5096926;28;20020;-70
2021/07/01 08:32:32;;;;;;;0.95;0.30;;;28.30;51.20;;;;;;5096549;28;20362;-70
2021/07/01 08:35:02;;;;;;;0.95;0.40;;;27.80;52.00;;;;;;5096857;28;20025;-70
2021/07/01 08:37:29;;;;;;;2.97;0.52;;;27.90;53.00;;;;;;5096905;28;20031;-70
2021/07/01 08:40:02;;;;;;;0.28;0.28;;;28.30;53.80;;;;;;5096830;28;20024;-70
2021/07/01 08:42:37;;;;;;;3.30;0.40;;;28.60;53.00;;;;;;5096441;28;20032;-70
2021/07/01 08:45:06;;;;;;;2.42;0.52;;;28.80;52.90;;;;;;5096419;28;20027;-70
2021/07/01 08:47:37;;;;;;;1.98;0.55;;;29.20;51.90;;;;;;5096314;28;20089;-70
2021/07/01 08:50:10;;;;;;;3.45;0.43;;;29.90;52.40;;;;;;5096470;28;20419;-70
2021/07/01 08:53:04;;;;;;;4.40;0.52;;;29.90;50.00;;;;;;5096716;28;20036;-70
2021/07/01 08:55:30;;;;;;;1.40;0.40;;;30.40;51.60;;;;;;5096186;28;20482;-70
2021/07/01 08:57:59;;;;;;;3.13;0.40;;;30.30;51.20;;;;;;5096353;28;20020;-70
2021/07/01 09:00:27;;;;;;;2.17;0.80;;;29.90;52.80;;;;;;5096766;28;20074;-70
2021/07/01 09:02:56;;;;;;;1.77;0.47;;;29.70;53.40;;;;;;5100225;28;20082;-70
2021/07/01 09:05:26;;;;;;;1.83;0.40;;;29.70;52.90;;;;;;5100382;28;20031;-70
2021/07/01 09:07:53;;;;;;;1.83;0.40;;;29.20;54.10;;;;;;5100340;28;20063;-70
2021/07/01 09:10:20;;;;;;;2.95;0.40;;;28.70;53.90;;;;;;5100036;28;20025;-70
2021/07/01 09:12:57;;;;;;;1.58;0.60;;;28.10;53.20;;;;;;5099895;28;20416;-70
2021/07/01 09:15:25;;;;;;;1.77;0.57;;;28.00;55.20;;;;;;5100211;28;20021;-70
2021/07/01 09:17:52;;;;;;;0.82;0.40;;;28.10;54.20;;;;;;5099892;28;20114;-70
2021/07/01 09:20:38;;;;;;;1.08;0.57;;;28.60;55.00;;;;;;5099826;28;20024;-70
2021/07/01 09:23:08;;;;;;;3.78;0.65;;;28.80;52.70;;;;;;5100079;28;20074;-70
2021/07/01 09:25:34;;;;;;;1.40;0.40;;;28.60;53.80;;;;;;5099649;28;20024;-70
2021/07/01 09:28:01;;;;;;;2.55;0.52;;;28.90;56.00;;;;;;5099919;28;20324;-70
2021/07/01 09:30:29;;;;;;;1.42;0.40;;;29.20;52.80;;;;;;5099681;28;20058;-71
2021/07/01 09:32:58;;;;;;;2.45;0.40;;;30.10;51.00;;;;;;5099844;28;20106;-72
2021/07/01 09:35:28;;;;;;;1.58;0.35;;;30.70;53.20;;;;;;5099549;28;20412;-72
2021/07/01 09:37:54;;;;;;;2.25;0.50;;;30.90;52.30;;;;;;5099525;28;20073;-72
2021/07/01 09:40:21;;;;;;;1.58;0.65;;;31.20;50.40;;;;;;5099766;28;20082;-72
2021/07/01 09:42:57;;;;;;;3.58;0.68;;;31.70;51.20;;;;;;5099544;28;20040;-72
2021/07/01 09:45:24;;;;;;;1.35;0.40;;;31.80;49.30;;;;;;5099346;28;20099;-71
2021/07/01 09:47:56;;;;;;;2.58;0.52;;;31.40;49.30;;;;;;5099530;28;20063;-70
2021/07/01 09:50:26;;;;;;;2.47;0.50;;;31.40;48.90;;;;;;5099557;28;20104;-70
2021/07/01 09:52:55;;;;;;;2.20;0.73;;;31.70;47.60;;;;;;5099539;28;20030;-70
2021/07/01 09:55:27;;;;;;;1.30;0.40;;;31.70;51.80;;;;;;5099134;28;20336;-70
2021/07/01 09:58:03;;;;;;;2.15;0.60;;;32.00;52.20;;;;;;5099484;28;20043;-70
2021/07/01 10:00:31;;;;;;;4.55;0.60;;;31.90;47.70;;;;;;5099450;28;20069;-70
2021/07/01 10:03:08;;;;;;;4.28;0.57;;;31.60;50.80;;;;;;5099357;28;20039;-70
2021/07/01 10:05:35;;;;;;;1.98;0.60;;;31.70;52.70;;;;;;5099280;28;20100;-71
2021/07/01 10:08:01;;;;;;;1.70;0.65;;;31.80;50.30;;;;;;5099161;28;20028;-70
2021/07/01 10:10:27;;;;;;;2.92;0.50;;;31.90;49.80;;;;;;5099190;28;20309;-70
2021/07/01 10:12:58;;;;;;;2.72;0.65;;;32.10;49.70;;;;;;5098213;28;20039;-71
2021/07/01 10:15:35;;;;;;;4.15;0.60;;;32.00;50.10;;;;;;5098772;28;20035;-71
2021/07/01 10:18:02;;;;;;;3.00;1.13;;;32.00;49.60;;;;;;5097507;28;20024;-71
2021/07/01 10:20:33;;;;;;;3.85;0.50;;;31.80;52.80;;;;;;5108393;28;20019;-71
2021/07/01 10:23:00;;;;;;;1.52;0.50;;;31.70;48.20;;;;;;5119387;28;20032;-70
2021/07/01 10:25:31;;;;;;;1.63;0.60;;;31.70;49.20;;;;;;5119313;28;20154;-70
2021/07/01 10:28:09;;;;;;;2.30;0.60;;;31.30;49.60;;;;;;5119096;28;20039;-70
2021/07/01 10:30:34;;;;;;;1.63;0.50;;;31.30;50.90;;;;;;5118952;28;20019;-70
2021/07/01 10:33:00;;;;;;;2.30;0.65;;;31.30;48.40;;;;;;5119119;28;20122;-70
2021/07/01 10:35:33;;;;;;;1.88;0.50;;;31.30;49.00;;;;;;5118784;28;20024;-70
2021/07/01 10:38:13;;;;;;;1.75;0.60;;;31.40;48.70;;;;;;5119134;28;20110;-71
2021/07/01 10:40:49;;;;;;;1.67;0.40;;;31.60;50.90;;;;;;5119045;28;20413;-71
2021/07/01 10:43:17;;;;;;;1.88;0.40;;;31.80;47.10;;;;;;5119036;28;20161;-71
2021/07/01 10:45:55;;;;;;;4.25;0.85;;;32.00;48.10;;;;;;5118865;28;20027;-70
2021/07/01 10:48:22;;;;;;;2.10;0.57;;;31.90;48.90;;;;;;5115036;28;20028;-70
2021/07/01 10:50:50;;;;;;;3.75;0.52;;;32.10;49.20;;;;;;5108158;28;20081;-70
2021/07/01 10:53:45;;;;;;;2.75;0.57;;;32.00;47.80;;;;;;5118752;28;20064;-70
2021/07/01 10:56:16;;;;;;;3.27;0.50;;;32.10;47.40;;;;;;5118229;28;20423;-70
2021/07/01 10:58:43;;;;;;;1.42;0.50;;;31.90;51.40;;;;;;5118614;28;20030;-71
2021/07/01 11:01:19;;;;;;;1.83;0.40;;;31.60;46.50;;;;;;5118585;28;20016;-71
2021/07/01 11:03:45;;;;;;;4.75;0.60;;;31.40;49.80;;;;;;5118570;28;20315;-71
2021/07/01 11:06:15;;;;;;;1.70;0.45;;;31.10;50.60;;;;;;5118031;28;20102;-71
2021/07/01 11:08:42;;;;;;;4.28;0.57;;;31.10;49.80;;;;;;5118440;28;20039;-71
2021/07/01 11:11:29;;;;;;;1.00;0.30;;;30.80;50.30;;;;;;5118144;28;20028;-71
2021/07/01 11:14:15;;;;;;;1.60;0.52;;;31.10;50.90;;;;;;5118482;28;20042;-71
2021/07/01 11:16:42;;;;;;;8.38;1.15;;;31.00;51.40;;;;;;5118254;28;20016;-71
2021/07/01 11:19:18;;;;;;;3.97;0.52;;;30.90;50.50;;;;;;5117782;28;20469;-71
2021/07/01 11:21:45;;;;;;;3.53;0.50;;;30.80;48.10;;;;;;5117837;28;20088;-71
2021/07/01 11:24:14;;;;;;;2.65;0.63;;;30.70;48.80;;;;;;5118079;28;20032;-71
2021/07/01 11:26:41;;;;;;;4.68;0.60;;;30.70;47.70;;;;;;5117660;28;20016;-71
2021/07/01 11:29:08;;;;;;;5.55;0.70;;;30.60;51.90;;;;;;5117785;28;20106;-71
2021/07/01 11:31:37;;;;;;;1.80;0.80;;;30.30;50.10;;;;;;5118018;28;20023;-71
2021/07/01 11:34:05;;;;;;;2.00;0.50;;;29.60;49.40;;;;;;5117969;28;20027;-71
2021/07/01 11:36:31;;;;;;;1.85;0.50;;;29.00;51.20;;;;;;5117892;28;20311;-70
2021/07/01 11:39:09;;;;;;;1.58;0.60;;;29.00;51.00;;;;;;5117883;28;20028;-71
2021/07/01 11:41:35;;;;;;;4.22;0.70;;;29.10;50.90;;;;;;5117942;28;20093;-71
2021/07/01 11:44:02;;;;;;;3.42;0.43;;;29.30;52.00;;;;;;5117573;28;20038;-71
2021/07/01 11:46:28;;;;;;;1.05;0.55;;;29.50;53.30;;;;;;5117716;28;20024;-71
2021/07/01 11:48:55;;;;;;;3.63;1.00;;;29.50;58.20;;;;;;5099556;28;20362;-71
2021/07/01 11:51:23;;;;;;;2.92;0.70;;;29.80;51.70;;;;;;5117424;28;20024;-71
2021/07/01 11:53:49;;;;;;;4.18;0.63;;;30.00;51.30;;;;;;5117659;28;20107;-71
2021/07/01 11:56:15;;;;;;;4.45;0.60;;;30.00;53.60;;;;;;5117276;28;20048;-71
2021/07/01 11:58:43;;;;;;;8.00;0.80;;;29.90;54.60;;;;;;5117632;28;20057;-71
2021/07/01 12:01:09;;;;;;;1.08;0.50;;;29.90;53.80;;;;;;5117568;28;20019;-70
2021/07/01 12:03:37;;;;;;;1.88;0.60;;;29.80;53.50;;;;;;5117580;28;20031;-71
2021/07/01 12:06:04;;;;;;;1.50;0.50;;;29.70;49.60;;;;;;5117411;28;20020;-71
2021/07/01 12:08:34;;;;;;;3.50;0.70;;;29.70;54.10;;;;;;5117463;28;20035;-71
2021/07/01 12:11:04;;;;;;;3.95;0.90;;;29.70;55.60;;;;;;5117177;28;20549;-71
2021/07/01 12:13:33;;;;;;;4.32;0.80;;;29.60;54.20;;;;;;5117211;28;20036;-70
2021/07/01 12:16:02;;;;;;;1.65;0.60;;;29.60;60.10;;;;;;5117253;28;20026;-71
2021/07/01 12:18:52;;;;;;;2.78;0.68;;;29.50;56.50;;;;;;5117093;28;20055;-70
2021/07/01 12:21:22;;;;;;;2.50;0.77;;;29.40;54.90;;;;;;5117136;28;20103;-71
2021/07/01 12:23:49;;;;;;;3.90;0.90;;;28.90;58.70;;;;;;5117032;28;20023;-70
2021/07/01 12:26:32;;;;;;;3.10;0.70;;;28.60;57.10;;;;;;5116839;28;20038;-71
2021/07/01 12:28:58;;;;;;;3.65;1.10;;;28.60;57.80;;;;;;5117255;28;20092;-70
2021/07/01 12:31:25;;;;;;;2.58;0.80;;;28.30;54.80;;;;;;5117225;28;20023;-71
2021/07/01 12:33:56;;;;;;;4.82;0.90;;;28.10;57.60;;;;;;5116883;28;20028;-71
2021/07/01 12:36:26;;;;;;;4.07;1.42;;;27.90;56.40;;;;;;5118697;28;20057;-71
2021/07/01 12:39:11;;;;;;;3.10;0.85;;;27.60;63.80;;;;;;5120996;28;20411;-71
2021/07/01 12:42:03;;;;;;;7.18;1.13;;;27.30;61.60;;;;;;5121256;28;20031;-71
2021/07/01 12:44:34;;;;;;;4.88;0.73;;;27.10;61.40;;;;;;5082000;28;20035;-71
2021/07/01 12:47:05;;;;;;;6.85;0.82;;;27.00;64.90;;;;;;5120747;28;20058;-70
2021/07/01 12:49:34;;;;;;;3.33;0.65;;;26.80;62.70;;;;;;5120808;28;20439;-70
2021/07/01 12:52:03;;;;;;;4.13;0.77;;;26.70;65.50;;;;;;5120730;28;20028;-70
2021/07/01 12:54:31;;;;;;;6.78;1.35;;;26.50;63.20;;;;;;5120883;28;20066;-70